createdAt,value
2022-07-30T00:00:51.478Z,21.43
2022-07-30T00:03:18.675Z,21.60
2022-07-30T00:05:45.985Z,21.36
2022-07-30T00:08:13.048Z,21.44
2022-07-30T00:10:40.587Z,21.53
2022-07-30T00:13:08.442Z,21.58
2022-07-30T00:15:36.600Z,21.62
2022-07-30T00:18:03.856Z,21.70
2022-07-30T00:20:32.314Z,21.53
2022-07-30T00:23:04.608Z,21.32
2022-07-30T00:25:32.155Z,21.25
2022-07-30T00:28:00.259Z,21.14
2022-07-30T00:30:29.358Z,21.23
2022-07-30T00:32:57.557Z,21.04
2022-07-30T00:35:25.539Z,21.09
2022-07-30T00:37:55.827Z,20.94
2022-07-30T00:40:23.566Z,20.95
2022-07-30T00:42:50.648Z,20.90
2022-07-30T00:45:19.106Z,20.55
2022-07-30T00:47:46.739Z,20.21
2022-07-30T00:50:15.343Z,19.88
2022-07-30T00:52:43.490Z,19.64
2022-07-30T00:55:13.973Z,19.76
2022-07-30T00:57:42.620Z,19.79
2022-07-30T01:00:14.447Z,19.76
2022-07-30T01:02:41.434Z,19.64
2022-07-30T01:05:09.586Z,19.91
2022-07-30T01:07:36.845Z,20.21
2022-07-30T01:10:06.030Z,20.33
2022-07-30T01:12:34.139Z,20.28
2022-07-30T01:15:05.153Z,20.11
2022-07-30T01:17:32.788Z,19.89
2022-07-30T01:20:06.639Z,19.69
2022-07-30T01:22:50.086Z,19.65
2022-07-30T01:25:32.026Z,19.73
2022-07-30T01:28:14.141Z,20.31
2022-07-30T01:30:46.390Z,20.59
2022-07-30T01:33:20.431Z,20.29
2022-07-30T01:35:49.069Z,20.38
2022-07-30T01:38:23.020Z,20.51
2022-07-30T01:40:55.848Z,20.65
2022-07-30T01:43:25.884Z,20.58
2022-07-30T01:45:54.023Z,20.50
2022-07-30T01:48:24.649Z,20.59
2022-07-30T01:50:55.532Z,20.30
2022-07-30T01:53:27.362Z,19.99
2022-07-30T01:55:56.700Z,19.68
2022-07-30T01:58:28.130Z,19.38
2022-07-30T02:01:01.137Z,19.35
2022-07-30T02:03:29.648Z,19.68
2022-07-30T02:06:01.786Z,19.85
2022-07-30T02:08:51.842Z,20.02
2022-07-30T02:11:39.935Z,19.78
2022-07-30T02:14:14.796Z,19.75
2022-07-30T02:16:48.625Z,19.93
2022-07-30T02:19:19.673Z,19.72
2022-07-30T02:22:05.431Z,19.64
2022-07-30T02:24:39.199Z,19.88
2022-07-30T02:27:15.721Z,19.85
2022-07-30T02:29:47.581Z,20.04
2022-07-30T02:32:20.922Z,19.88
2022-07-30T02:34:54.751Z,19.95
2022-07-30T02:37:43.261Z,19.93
2022-07-30T02:40:16.266Z,19.79
2022-07-30T02:42:46.512Z,19.71
2022-07-30T02:45:17.754Z,19.64
2022-07-30T02:47:50.554Z,19.86
2022-07-30T02:50:19.213Z,19.75
2022-07-30T02:52:48.045Z,19.68
2022-07-30T02:55:17.481Z,19.66
2022-07-30T02:57:46.752Z,19.46
2022-07-30T03:00:14.324Z,19.27
2022-07-30T03:02:43.896Z,19.00
2022-07-30T03:05:14.109Z,19.25
2022-07-30T03:07:41.685Z,19.19
2022-07-30T03:10:09.549Z,19.15
2022-07-30T03:12:37.878Z,19.20
2022-07-30T03:15:05.659Z,19.15
2022-07-30T03:17:38.863Z,19.25
2022-07-30T03:20:11.557Z,19.18
2022-07-30T03:22:47.583Z,19.23
2022-07-30T03:25:17.364Z,19.27
2022-07-30T03:27:45.242Z,19.30
2022-07-30T03:30:13.752Z,19.27
2022-07-30T03:32:41.481Z,19.34
2022-07-30T03:35:17.008Z,19.42
2022-07-30T03:37:46.963Z,19.31
2022-07-30T03:40:15.944Z,19.09
2022-07-30T03:42:45.467Z,18.97
2022-07-30T03:45:13.880Z,19.01
2022-07-30T03:47:43.216Z,18.96
2022-07-30T03:50:12.383Z,19.22
2022-07-30T03:52:41.459Z,19.12
2022-07-30T03:55:12.118Z,19.08
2022-07-30T03:57:39.761Z,19.16
2022-07-30T04:00:15.013Z,19.09
2022-07-30T04:02:49.743Z,19.27
2022-07-30T04:05:17.237Z,19.11
2022-07-30T04:07:45.208Z,18.95
2022-07-30T04:10:14.745Z,18.85
2022-07-30T04:12:43.540Z,18.84
2022-07-30T04:16:40.510Z,18.99
2022-07-30T04:18:03.365Z,19.29
2022-07-30T04:20:41.042Z,19.45
2022-07-30T04:23:10.890Z,19.56
2022-07-30T04:25:40.316Z,19.69
2022-07-30T04:28:09.810Z,19.94
2022-07-30T04:30:36.845Z,20.06
2022-07-30T04:33:05.143Z,20.38
2022-07-30T04:35:50.800Z,20.14
2022-07-30T04:38:19.720Z,20.06
2022-07-30T04:40:47.691Z,19.91
2022-07-30T04:43:15.578Z,19.90
2022-07-30T04:45:42.907Z,20.01
2022-07-30T04:48:13.120Z,20.19
2022-07-30T04:50:43.877Z,20.20
2022-07-30T04:53:12.004Z,20.57
2022-07-30T04:55:43.367Z,20.45
2022-07-30T04:58:12.424Z,20.59
2022-07-30T05:00:41.696Z,20.61
2022-07-30T05:03:13.753Z,20.90
2022-07-30T05:05:45.787Z,21.06
2022-07-30T05:08:13.303Z,21.11
2022-07-30T05:10:41.234Z,21.11
2022-07-30T05:13:13.512Z,21.31
2022-07-30T05:15:42.135Z,21.41
2022-07-30T05:18:10.879Z,21.36
2022-07-30T05:20:39.419Z,21.35
2022-07-30T05:23:06.786Z,21.18
2022-07-30T05:25:33.746Z,21.25
2022-07-30T05:28:00.712Z,21.25
2022-07-30T05:30:27.924Z,21.51
2022-07-30T05:32:56.101Z,21.62
2022-07-30T05:35:28.219Z,21.77
2022-07-30T05:37:56.301Z,21.81
2022-07-30T05:40:23.264Z,21.93
2022-07-30T05:42:50.285Z,21.81
2022-07-30T05:45:17.249Z,21.62
2022-07-30T05:47:44.490Z,21.63
2022-07-30T05:50:12.732Z,21.89
2022-07-30T05:52:41.787Z,21.86
2022-07-30T05:55:09.757Z,21.97
2022-07-30T05:57:37.243Z,21.84
2022-07-30T06:00:07.591Z,21.77
2022-07-30T06:02:41.842Z,22.02
2022-07-30T06:05:09.370Z,21.85
2022-07-30T06:07:36.347Z,21.70
2022-07-30T06:10:04.582Z,21.78
2022-07-30T06:12:31.721Z,21.71
2022-07-30T06:14:59.172Z,21.84
2022-07-30T06:17:26.337Z,21.87
2022-07-30T06:19:53.407Z,22.22
2022-07-30T06:22:24.198Z,22.25
2022-07-30T06:24:53.012Z,22.57
2022-07-30T06:27:19.995Z,22.86
2022-07-30T06:29:47.043Z,22.72
2022-07-30T06:32:13.990Z,22.53
2022-07-30T06:34:40.974Z,22.65
2022-07-30T06:37:07.875Z,22.74
2022-07-30T06:39:55.976Z,23.12
2022-07-30T06:42:22.304Z,23.51
2022-07-30T06:44:49.198Z,23.48
2022-07-30T06:47:26.145Z,23.33
2022-07-30T06:49:53.942Z,23.19
2022-07-30T06:52:20.986Z,23.41
2022-07-30T06:54:50.634Z,23.43
2022-07-30T06:57:17.682Z,23.71
2022-07-30T06:59:56.705Z,24.05
2022-07-30T07:02:24.780Z,24.08
2022-07-30T07:04:51.724Z,24.48
2022-07-30T07:07:37.030Z,24.22
2022-07-30T07:10:05.133Z,23.82
2022-07-30T07:12:32.063Z,23.76
2022-07-30T07:14:59.032Z,23.78
2022-07-30T07:17:25.955Z,23.69
2022-07-30T07:20:00.086Z,23.75
2022-07-30T07:22:29.094Z,23.94
2022-07-30T07:24:56.195Z,23.90
2022-07-30T07:27:23.536Z,24.03
2022-07-30T07:30:01.446Z,23.80
2022-07-30T07:32:36.691Z,23.60
2022-07-30T07:35:05.129Z,23.92
2022-07-30T07:37:32.119Z,23.83
2022-07-30T07:39:59.147Z,23.98
2022-07-30T07:42:26.139Z,24.14
2022-07-30T07:44:55.159Z,23.71
2022-07-30T07:47:22.095Z,23.75
2022-07-30T07:49:49.331Z,23.85
2022-07-30T07:52:16.305Z,23.88
2022-07-30T07:54:43.298Z,23.89
2022-07-30T07:57:14.652Z,23.92
2022-07-30T07:59:45.525Z,24.14
2022-07-30T08:02:12.599Z,24.82
2022-07-30T08:04:39.617Z,25.01
2022-07-30T08:07:06.780Z,25.03
2022-07-30T08:09:42.034Z,25.15
2022-07-30T08:12:12.830Z,25.00
2022-07-30T08:14:40.081Z,25.53
2022-07-30T08:17:07.558Z,25.83
2022-07-30T08:19:35.313Z,25.90
2022-07-30T08:22:02.248Z,26.30
2022-07-30T08:24:29.236Z,26.36
2022-07-30T08:26:57.328Z,26.44
2022-07-30T08:29:24.282Z,26.95
2022-07-30T08:31:51.468Z,27.12
2022-07-30T08:34:20.314Z,27.22
2022-07-30T08:36:52.746Z,27.27
2022-07-30T08:39:19.732Z,27.07
2022-07-30T08:41:47.020Z,26.81
2022-07-30T08:44:17.445Z,27.20
2022-07-30T08:46:47.029Z,27.41
2022-07-30T08:49:15.590Z,27.50
2022-07-30T08:51:43.184Z,27.44
2022-07-30T08:54:10.367Z,27.70
2022-07-30T08:56:38.105Z,27.92
2022-07-30T08:59:05.557Z,27.65
2022-07-30T09:01:32.520Z,27.55
2022-07-30T09:03:59.767Z,27.72
2022-07-30T09:06:27.090Z,28.20
2022-07-30T09:08:54.697Z,27.78
2022-07-30T09:11:22.199Z,28.14
2022-07-30T09:13:50.867Z,28.48
2022-07-30T09:16:26.490Z,28.63
2022-07-30T09:18:55.191Z,28.97
2022-07-30T09:21:29.372Z,28.98
2022-07-30T09:24:03.919Z,29.18
2022-07-30T09:26:35.539Z,29.09
2022-07-30T09:29:23.510Z,29.23
2022-07-30T09:32:06.396Z,29.71
2022-07-30T09:34:38.050Z,29.17
2022-07-30T09:37:18.759Z,29.14
2022-07-30T09:39:58.986Z,29.10
2022-07-30T09:42:29.037Z,28.54
2022-07-30T09:45:10.767Z,28.79
2022-07-30T09:47:41.230Z,29.15
2022-07-30T09:50:18.000Z,29.43
2022-07-30T09:53:09.405Z,30.17
2022-07-30T09:55:41.364Z,30.17
2022-07-30T09:58:12.644Z,29.99
2022-07-30T10:00:45.256Z,30.06
2022-07-30T10:03:21.609Z,29.77
2022-07-30T10:06:03.570Z,29.85
2022-07-30T10:08:46.915Z,30.03
2022-07-30T10:11:22.718Z,29.68
2022-07-30T10:13:59.290Z,29.66
2022-07-30T10:16:28.089Z,30.04
2022-07-30T10:19:00.024Z,30.42
2022-07-30T10:21:28.415Z,30.84
2022-07-30T10:23:59.926Z,30.23
2022-07-30T10:26:28.839Z,29.29
2022-07-30T10:28:56.751Z,29.80
2022-07-30T10:31:48.776Z,29.93
2022-07-30T10:34:17.729Z,30.27
2022-07-30T10:36:53.776Z,29.99
2022-07-30T10:39:47.109Z,30.61
2022-07-30T10:43:06.587Z,30.52
2022-07-30T10:46:01.264Z,30.34
2022-07-30T10:48:34.757Z,30.72
2022-07-30T10:51:01.902Z,30.75
2022-07-30T10:53:46.682Z,30.54
2022-07-30T10:56:15.586Z,30.18
2022-07-30T10:59:04.894Z,29.27
2022-07-30T11:01:48.754Z,29.17
2022-07-30T11:04:29.860Z,29.61
2022-07-30T11:07:29.566Z,29.92
2022-07-30T11:10:09.317Z,30.54
2022-07-30T11:12:44.182Z,30.24
2022-07-30T11:15:18.995Z,29.63
2022-07-30T11:18:12.909Z,29.54
2022-07-30T11:20:43.294Z,29.71
2022-07-30T11:23:25.011Z,29.96
2022-07-30T11:25:54.734Z,30.08
2022-07-30T11:28:43.689Z,30.76
2022-07-30T11:31:54.798Z,30.36
2022-07-30T11:34:25.672Z,29.89
2022-07-30T11:37:18.373Z,29.60
2022-07-30T11:40:06.106Z,29.71
2022-07-30T11:42:36.522Z,29.88
2022-07-30T11:45:18.198Z,30.67
2022-07-30T11:47:51.187Z,30.79
2022-07-30T11:50:20.518Z,31.15
2022-07-30T11:53:01.951Z,31.72
2022-07-30T11:55:36.557Z,31.68
2022-07-30T11:58:08.583Z,31.95
2022-07-30T12:00:41.494Z,31.63
2022-07-30T12:03:11.777Z,31.04
2022-07-30T12:05:39.986Z,30.68
2022-07-30T12:08:33.378Z,30.38
2022-07-30T12:11:01.226Z,30.71
2022-07-30T12:13:44.991Z,31.17
2022-07-30T12:16:17.469Z,30.86
2022-07-30T12:18:46.671Z,30.13
2022-07-30T12:21:17.527Z,30.08
2022-07-30T12:23:59.154Z,30.81
2022-07-30T12:26:30.754Z,30.84
2022-07-30T12:29:00.832Z,30.87
2022-07-30T12:31:28.801Z,30.92
2022-07-30T12:34:00.398Z,31.36
2022-07-30T12:36:36.395Z,31.63
2022-07-30T12:39:06.563Z,31.77
2022-07-30T12:41:46.189Z,32.12
2022-07-30T12:44:38.948Z,32.08
2022-07-30T12:47:25.926Z,32.04
2022-07-30T12:50:01.634Z,31.83
2022-07-30T12:52:35.588Z,31.99
2022-07-30T12:55:10.877Z,32.11
2022-07-30T12:58:07.094Z,31.49
2022-07-30T13:00:43.728Z,31.39
2022-07-30T13:03:26.201Z,30.61
2022-07-30T13:05:57.740Z,30.63
2022-07-30T13:08:59.055Z,31.18
2022-07-30T13:11:49.145Z,31.03
2022-07-30T13:14:17.302Z,31.19
2022-07-30T13:16:44.408Z,31.19
2022-07-30T13:19:12.498Z,31.11
2022-07-30T13:21:48.681Z,31.33
2022-07-30T13:24:18.476Z,31.75
2022-07-30T13:26:46.767Z,30.95
2022-07-30T13:29:14.056Z,30.11
2022-07-30T13:31:43.145Z,30.41
2022-07-30T13:34:12.085Z,30.96
2022-07-30T13:36:39.265Z,31.22
2022-07-30T13:39:06.276Z,31.53
2022-07-30T13:41:36.167Z,31.43
2022-07-30T13:44:04.208Z,31.60
2022-07-30T13:46:31.135Z,31.64
2022-07-30T13:48:58.265Z,31.54
2022-07-30T13:51:25.343Z,32.25
2022-07-30T13:53:52.537Z,32.30
2022-07-30T13:56:20.043Z,31.55
2022-07-30T13:58:47.822Z,32.00
2022-07-30T14:01:17.324Z,32.19
2022-07-30T14:03:50.844Z,32.36
2022-07-30T14:06:19.775Z,32.16
2022-07-30T14:08:46.848Z,32.66
2022-07-30T14:11:14.204Z,32.34
2022-07-30T14:13:41.457Z,31.91
2022-07-30T14:16:28.412Z,31.76
2022-07-30T14:18:57.424Z,31.64
2022-07-30T14:21:25.120Z,31.93
2022-07-30T14:23:52.186Z,31.58
2022-07-30T14:26:19.268Z,31.75
2022-07-30T14:28:46.289Z,32.11
2022-07-30T14:31:13.306Z,32.22
2022-07-30T14:33:40.267Z,32.31
2022-07-30T14:36:07.480Z,32.42
2022-07-30T14:38:34.431Z,32.39
2022-07-30T14:41:01.405Z,32.27
2022-07-30T14:43:28.399Z,32.25
2022-07-30T14:45:55.377Z,32.49
2022-07-30T14:48:22.374Z,32.64
2022-07-30T14:51:12.031Z,32.62
2022-07-30T14:53:36.386Z,32.49
2022-07-30T14:56:03.771Z,32.29
2022-07-30T14:58:30.794Z,32.58
2022-07-30T15:00:57.745Z,32.06
2022-07-30T15:03:25.857Z,31.72
2022-07-30T15:05:53.293Z,31.45
2022-07-30T15:08:20.751Z,32.26
2022-07-30T15:10:47.847Z,32.41
2022-07-30T15:13:15.527Z,31.91
2022-07-30T15:15:45.208Z,31.89
2022-07-30T15:18:13.948Z,32.08
2022-07-30T15:20:40.883Z,32.01
2022-07-30T15:23:11.766Z,31.89
2022-07-30T15:25:41.820Z,31.73
2022-07-30T15:28:08.829Z,31.74
2022-07-30T15:30:36.390Z,31.58
2022-07-30T15:33:03.392Z,32.02
2022-07-30T15:35:30.575Z,32.14
2022-07-30T15:37:59.175Z,32.17
2022-07-30T15:40:26.676Z,31.95
2022-07-30T15:42:53.651Z,31.75
2022-07-30T15:45:22.228Z,31.54
2022-07-30T15:47:49.387Z,31.79
2022-07-30T15:50:17.288Z,32.00
2022-07-30T15:52:45.193Z,32.34
2022-07-30T15:55:12.883Z,32.06
2022-07-30T15:57:41.891Z,31.49
2022-07-30T16:00:10.353Z,31.80
2022-07-30T16:02:37.972Z,31.72
2022-07-30T16:05:07.734Z,31.70
2022-07-30T16:07:37.608Z,31.58
2022-07-30T16:10:06.226Z,31.54
2022-07-30T16:12:33.141Z,31.53
2022-07-30T16:15:00.098Z,31.66
2022-07-30T16:17:27.231Z,31.43
2022-07-30T16:19:54.169Z,31.46
2022-07-30T16:22:23.772Z,31.15
2022-07-30T16:24:51.146Z,31.56
2022-07-30T16:27:18.580Z,31.52
2022-07-30T16:29:45.639Z,31.36
2022-07-30T16:32:12.671Z,30.76
2022-07-30T16:34:39.658Z,30.91
2022-07-30T16:37:06.719Z,31.02
2022-07-30T16:39:33.793Z,31.36
2022-07-30T16:42:01.142Z,31.53
2022-07-30T16:44:31.928Z,31.07
2022-07-30T16:46:58.990Z,31.08
2022-07-30T16:49:26.437Z,30.76
2022-07-30T16:51:54.125Z,30.53
2022-07-30T16:54:21.383Z,30.20
2022-07-30T16:56:52.620Z,29.87
2022-07-30T16:59:20.942Z,29.58
2022-07-30T17:01:48.641Z,29.72
2022-07-30T17:04:15.950Z,29.95
2022-07-30T17:06:46.885Z,29.80
2022-07-30T17:09:16.095Z,30.07
2022-07-30T17:11:47.012Z,29.82
2022-07-30T17:14:19.162Z,29.70
2022-07-30T17:16:46.175Z,29.85
2022-07-30T17:19:13.113Z,30.13
2022-07-30T17:21:40.288Z,30.40
2022-07-30T17:24:15.451Z,30.61
2022-07-30T17:26:43.607Z,30.49
2022-07-30T17:29:15.716Z,30.46
2022-07-30T17:31:44.657Z,30.22
2022-07-30T17:34:14.184Z,30.22
2022-07-30T17:36:52.739Z,30.25
2022-07-30T17:40:26.471Z,29.66
2022-07-30T17:42:11.208Z,29.57
2022-07-30T17:44:42.667Z,29.97
2022-07-30T17:47:15.096Z,29.58
2022-07-30T17:49:43.868Z,29.39
2022-07-30T17:52:11.070Z,29.38
2022-07-30T17:54:38.304Z,29.58
2022-07-30T17:57:05.815Z,29.76
2022-07-30T17:59:32.768Z,29.77
2022-07-30T18:02:00.222Z,29.74
2022-07-30T18:04:27.676Z,29.64
2022-07-30T18:06:55.773Z,29.68
2022-07-30T18:09:23.050Z,29.48
2022-07-30T18:11:50.064Z,29.43
2022-07-30T18:14:17.338Z,29.46
2022-07-30T18:16:44.441Z,29.42
2022-07-30T18:19:27.007Z,29.27
2022-07-30T18:21:54.633Z,29.08
2022-07-30T18:24:24.748Z,29.07
2022-07-30T18:26:52.384Z,28.94
2022-07-30T18:29:20.956Z,28.81
2022-07-30T18:31:48.185Z,28.53
2022-07-30T18:34:16.247Z,28.33
2022-07-30T18:36:43.232Z,28.25
2022-07-30T18:39:11.673Z,28.24
2022-07-30T18:41:38.696Z,28.07
2022-07-30T18:44:05.690Z,27.95
2022-07-30T18:46:32.662Z,27.83
2022-07-30T18:49:15.185Z,27.79
2022-07-30T18:51:47.438Z,27.74
2022-07-30T18:54:15.970Z,27.64
2022-07-30T18:56:43.029Z,27.05
2022-07-30T18:59:10.041Z,27.11
2022-07-30T19:01:39.183Z,26.86
2022-07-30T19:04:06.927Z,26.63
2022-07-30T19:06:37.868Z,26.05
2022-07-30T19:09:05.835Z,26.11
2022-07-30T19:11:42.640Z,26.01
2022-07-30T19:14:10.372Z,25.91
2022-07-30T19:16:37.314Z,25.87
2022-07-30T19:19:05.099Z,26.13
2022-07-30T19:21:32.034Z,26.12
2022-07-30T19:23:59.092Z,25.83
2022-07-30T19:26:26.183Z,25.59
2022-07-30T19:28:53.136Z,25.44
2022-07-30T19:31:20.111Z,25.08
2022-07-30T19:33:47.211Z,24.71
2022-07-30T19:36:16.435Z,24.44
2022-07-30T19:38:45.220Z,24.24
2022-07-30T19:41:14.101Z,24.09
2022-07-30T19:43:41.378Z,24.25
2022-07-30T19:46:08.715Z,23.92
2022-07-30T19:48:37.347Z,23.97
2022-07-30T19:51:05.789Z,23.95
2022-07-30T19:53:44.550Z,23.91
2022-07-30T19:56:12.506Z,23.97
2022-07-30T19:58:41.750Z,24.10
2022-07-30T20:01:14.462Z,24.09
2022-07-30T20:03:42.286Z,24.04
2022-07-30T20:06:15.406Z,24.04
2022-07-30T20:08:45.397Z,24.06
2022-07-30T20:14:05.670Z,23.85
2022-07-30T20:16:32.974Z,23.99
2022-07-30T20:19:00.028Z,24.04
2022-07-30T20:22:06.815Z,23.84
2022-07-30T20:24:17.896Z,24.04
2022-07-30T20:26:46.450Z,24.13
2022-07-30T20:29:19.101Z,24.20
2022-07-30T20:34:35.658Z,23.90
2022-07-30T20:37:13.868Z,24.14
2022-07-30T20:39:51.054Z,24.26
2022-07-30T20:42:18.543Z,24.14
2022-07-30T20:44:49.333Z,24.09
2022-07-30T20:47:28.269Z,23.91
2022-07-30T20:50:01.789Z,24.08
2022-07-30T20:52:28.792Z,23.99
2022-07-30T20:54:56.820Z,24.05
2022-07-30T20:57:30.795Z,23.87
2022-07-30T21:00:12.361Z,23.79
2022-07-30T21:02:39.640Z,23.90
2022-07-30T21:05:07.047Z,23.72
2022-07-30T21:07:36.320Z,23.65
2022-07-30T21:10:04.589Z,23.32
2022-07-30T21:12:36.597Z,23.53
2022-07-30T21:15:05.693Z,23.48
2022-07-30T21:17:50.805Z,23.51
2022-07-30T21:20:27.299Z,23.53
2022-07-30T21:22:56.515Z,23.49
2022-07-30T21:25:32.641Z,23.18
2022-07-30T21:28:02.595Z,23.09
2022-07-30T21:30:30.575Z,23.05
2022-07-30T21:32:58.011Z,23.28
2022-07-30T21:35:25.496Z,23.18
2022-07-30T21:37:59.375Z,22.95
2022-07-30T21:40:27.734Z,23.00
2022-07-30T21:42:56.221Z,23.08
2022-07-30T21:45:23.939Z,22.93
2022-07-30T21:47:55.368Z,23.02
2022-07-30T21:50:22.786Z,23.04
2022-07-30T21:52:50.188Z,23.10
2022-07-30T21:55:18.432Z,23.08
2022-07-30T21:57:48.684Z,23.19
2022-07-30T22:00:22.478Z,23.18
2022-07-30T22:02:52.845Z,23.08
2022-07-30T22:05:21.741Z,23.27
2022-07-30T22:07:50.421Z,23.38
2022-07-30T22:10:21.459Z,23.23
2022-07-30T22:12:48.743Z,23.20
2022-07-30T22:15:15.730Z,23.23
2022-07-30T22:17:58.833Z,23.06
2022-07-30T22:20:30.127Z,22.80
2022-07-30T22:22:59.830Z,22.61
2022-07-30T22:25:39.843Z,22.33
2022-07-30T22:28:11.684Z,22.38
2022-07-30T22:30:39.203Z,22.29
2022-07-30T22:33:15.593Z,22.21
2022-07-30T22:35:46.681Z,22.27
2022-07-30T22:38:14.971Z,22.12
2022-07-30T22:40:42.723Z,22.06
2022-07-30T22:43:12.769Z,21.92
2022-07-30T22:45:49.031Z,21.77
2022-07-30T22:48:17.582Z,21.84
2022-07-30T22:50:48.467Z,21.88
2022-07-30T22:54:03.512Z,21.83
2022-07-30T22:56:06.057Z,21.98
2022-07-30T22:58:41.202Z,22.27
2022-07-30T23:01:11.031Z,22.28
2022-07-30T23:03:38.421Z,22.40
2022-07-30T23:06:05.372Z,22.55
2022-07-30T23:08:33.471Z,22.44
2022-07-30T23:11:01.003Z,22.43
2022-07-30T23:12:17.417Z,23.72
2022-07-30T23:12:18.142Z,24.07
2022-07-30T23:13:28.831Z,22.62
2022-07-30T23:15:56.148Z,22.57
2022-07-30T23:18:23.204Z,22.67
2022-07-30T23:20:50.541Z,22.45
2022-07-30T23:23:17.494Z,22.54
2022-07-30T23:25:44.618Z,22.46
2022-07-30T23:28:11.626Z,22.49
2022-07-30T23:30:38.655Z,22.54
2022-07-30T23:33:05.695Z,22.47
2022-07-30T23:35:33.566Z,22.43
2022-07-30T23:38:00.553Z,22.42
2022-07-30T23:40:28.354Z,22.46
2022-07-30T23:42:56.255Z,22.49
2022-07-30T23:45:23.175Z,22.36
2022-07-30T23:48:02.050Z,22.39
2022-07-30T23:50:32.615Z,22.35
2022-07-30T23:53:00.928Z,22.32
2022-07-30T23:55:29.425Z,22.28
2022-07-30T23:57:57.295Z,22.28
